sensor_id;sensor_type;location;lat;lon;timestamp;temperature;humidity
57026;DHT22;43961;52.940;6.834;2023-05-10T00:01:03;13.80;99.90
57026;DHT22;43961;52.940;6.834;2023-05-10T00:03:28;13.80;99.90
57026;DHT22;43961;52.940;6.834;2023-05-10T00:05:54;13.80;99.90
57026;DHT22;43961;52.940;6.834;2023-05-10T00:08:20;13.70;99.90
57026;DHT22;43961;52.940;6.834;2023-05-10T00:10:45;13.70;99.90
57026;DHT22;43961;52.940;6.834;2023-05-10T00:13:11;13.70;99.90
57026;DHT22;43961;52.940;6.834;2023-05-10T00:15:36;13.70;99.90
57026;DHT22;43961;52.940;6.834;2023-05-10T00:18:02;13.70;99.90
57026;DHT22;43961;52.940;6.834;2023-05-10T00:20:28;13.60;99.90
57026;DHT22;43961;52.940;6.834;2023-05-10T00:22:53;13.60;99.90
57026;DHT22;43961;52.940;6.834;2023-05-10T00:25:19;13.60;99.90
57026;DHT22;43961;52.940;6.834;2023-05-10T00:27:47;13.50;99.90
57026;DHT22;43961;52.940;6.834;2023-05-10T00:30:12;13.50;99.90
57026;DHT22;43961;52.940;6.834;2023-05-10T00:32:38;13.50;99.90
57026;DHT22;43961;52.940;6.834;2023-05-10T00:35:04;13.50;99.90
57026;DHT22;43961;52.940;6.834;2023-05-10T00:37:29;13.40;99.90
57026;DHT22;43961;52.940;6.834;2023-05-10T00:39:55;13.40;99.90
57026;DHT22;43961;52.940;6.834;2023-05-10T00:42:21;13.40;99.90
57026;DHT22;43961;52.940;6.834;2023-05-10T00:44:47;13.30;99.90
57026;DHT22;43961;52.940;6.834;2023-05-10T00:47:13;13.30;99.90
57026;DHT22;43961;52.940;6.834;2023-05-10T00:49:39;13.30;99.90
57026;DHT22;43961;52.940;6.834;2023-05-10T00:52:06;13.30;99.90
57026;DHT22;43961;52.940;6.834;2023-05-10T00:54:31;13.20;99.90
57026;DHT22;43961;52.940;6.834;2023-05-10T00:56:57;13.30;99.90
57026;DHT22;43961;52.940;6.834;2023-05-10T00:59:24;13.20;99.90
57026;DHT22;43961;52.940;6.834;2023-05-10T01:01:50;13.20;99.90
57026;DHT22;43961;52.940;6.834;2023-05-10T01:04:17;13.20;99.90
57026;DHT22;43961;52.940;6.834;2023-05-10T01:06:43;13.10;99.90
57026;DHT22;43961;52.940;6.834;2023-05-10T01:09:08;13.10;99.90
57026;DHT22;43961;52.940;6.834;2023-05-10T01:11:35;13.10;99.90
57026;DHT22;43961;52.940;6.834;2023-05-10T01:14:02;13.10;99.90
57026;DHT22;43961;52.940;6.834;2023-05-10T01:16:29;13.10;99.90
57026;DHT22;43961;52.940;6.834;2023-05-10T01:18:57;13.10;99.90
57026;DHT22;43961;52.940;6.834;2023-05-10T01:21:32;13.10;99.90
57026;DHT22;43961;52.940;6.834;2023-05-10T01:27:13;13.10;99.90
57026;DHT22;43961;52.940;6.834;2023-05-10T01:35:23;13.00;99.90
57026;DHT22;43961;52.940;6.834;2023-05-10T01:38:16;13.00;99.90
57026;DHT22;43961;52.940;6.834;2023-05-10T01:43:53;13.00;99.90
57026;DHT22;43961;52.940;6.834;2023-05-10T01:46:27;13.00;99.90
57026;DHT22;43961;52.940;6.834;2023-05-10T01:48:56;13.00;99.90
57026;DHT22;43961;52.940;6.834;2023-05-10T01:51:29;13.00;99.90
57026;DHT22;43961;52.940;6.834;2023-05-10T01:54:01;12.90;99.90
57026;DHT22;43961;52.940;6.834;2023-05-10T01:56:30;13.00;99.90
57026;DHT22;43961;52.940;6.834;2023-05-10T01:58:56;12.90;99.90
57026;DHT22;43961;52.940;6.834;2023-05-10T02:01:22;12.90;99.90
57026;DHT22;43961;52.940;6.834;2023-05-10T02:03:50;12.80;99.90
57026;DHT22;43961;52.940;6.834;2023-05-10T02:06:19;12.80;99.90
57026;DHT22;43961;52.940;6.834;2023-05-10T02:08:45;12.80;99.90
57026;DHT22;43961;52.940;6.834;2023-05-10T02:11:13;12.80;99.90
57026;DHT22;43961;52.940;6.834;2023-05-10T02:13:39;12.90;99.90
57026;DHT22;43961;52.940;6.834;2023-05-10T02:16:07;12.80;99.90
57026;DHT22;43961;52.940;6.834;2023-05-10T02:18:34;12.80;99.90
57026;DHT22;43961;52.940;6.834;2023-05-10T02:21:02;12.80;99.90
57026;DHT22;43961;52.940;6.834;2023-05-10T02:23:29;12.70;99.90
57026;DHT22;43961;52.940;6.834;2023-05-10T02:25:56;12.70;99.90
57026;DHT22;43961;52.940;6.834;2023-05-10T02:28:23;12.70;99.90
57026;DHT22;43961;52.940;6.834;2023-05-10T02:30:53;12.80;99.90
57026;DHT22;43961;52.940;6.834;2023-05-10T02:33:19;12.70;99.90
57026;DHT22;43961;52.940;6.834;2023-05-10T02:35:46;12.70;99.90
57026;DHT22;43961;52.940;6.834;2023-05-10T02:38:13;12.80;99.90
57026;DHT22;43961;52.940;6.834;2023-05-10T02:40:41;12.70;99.90
57026;DHT22;43961;52.940;6.834;2023-05-10T02:43:10;12.80;99.90
57026;DHT22;43961;52.940;6.834;2023-05-10T02:45:38;12.70;99.90
57026;DHT22;43961;52.940;6.834;2023-05-10T02:48:05;12.80;99.90
57026;DHT22;43961;52.940;6.834;2023-05-10T02:50:33;12.70;99.90
57026;DHT22;43961;52.940;6.834;2023-05-10T02:53:09;12.70;99.90
57026;DHT22;43961;52.940;6.834;2023-05-10T02:55:40;12.70;99.90
57026;DHT22;43961;52.940;6.834;2023-05-10T02:58:06;12.70;99.90
57026;DHT22;43961;52.940;6.834;2023-05-10T03:00:32;12.70;99.90
57026;DHT22;43961;52.940;6.834;2023-05-10T03:02:58;12.70;99.90
57026;DHT22;43961;52.940;6.834;2023-05-10T03:05:24;12.70;99.90
57026;DHT22;43961;52.940;6.834;2023-05-10T03:07:50;12.60;99.90
57026;DHT22;43961;52.940;6.834;2023-05-10T03:10:17;12.60;99.90
57026;DHT22;43961;52.940;6.834;2023-05-10T03:13:29;12.60;99.90
57026;DHT22;43961;52.940;6.834;2023-05-10T03:16:24;12.60;99.90
57026;DHT22;43961;52.940;6.834;2023-05-10T03:21:42;12.70;99.90
57026;DHT22;43961;52.940;6.834;2023-05-10T03:24:10;12.70;99.90
57026;DHT22;43961;52.940;6.834;2023-05-10T03:26:38;12.70;99.90
57026;DHT22;43961;52.940;6.834;2023-05-10T03:29:06;12.60;99.90
57026;DHT22;43961;52.940;6.834;2023-05-10T03:31:33;12.70;99.90
57026;DHT22;43961;52.940;6.834;2023-05-10T03:33:59;12.70;99.90
57026;DHT22;43961;52.940;6.834;2023-05-10T03:36:24;12.70;99.90
57026;DHT22;43961;52.940;6.834;2023-05-10T03:38:50;12.70;99.90
57026;DHT22;43961;52.940;6.834;2023-05-10T03:41:15;12.60;99.90
57026;DHT22;43961;52.940;6.834;2023-05-10T03:43:41;12.70;99.90
57026;DHT22;43961;52.940;6.834;2023-05-10T03:46:07;12.60;99.90
57026;DHT22;43961;52.940;6.834;2023-05-10T03:48:33;12.70;99.90
57026;DHT22;43961;52.940;6.834;2023-05-10T03:50:59;12.60;99.90
57026;DHT22;43961;52.940;6.834;2023-05-10T03:53:24;12.70;99.90
57026;DHT22;43961;52.940;6.834;2023-05-10T03:55:50;12.60;99.90
57026;DHT22;43961;52.940;6.834;2023-05-10T03:58:16;12.60;99.90
57026;DHT22;43961;52.940;6.834;2023-05-10T04:00:41;12.60;99.90
57026;DHT22;43961;52.940;6.834;2023-05-10T04:03:09;12.60;99.90
57026;DHT22;43961;52.940;6.834;2023-05-10T04:05:35;12.60;99.90
57026;DHT22;43961;52.940;6.834;2023-05-10T04:08:01;12.60;99.90
57026;DHT22;43961;52.940;6.834;2023-05-10T04:10:27;12.60;99.90
57026;DHT22;43961;52.940;6.834;2023-05-10T04:12:54;12.60;99.90
57026;DHT22;43961;52.940;6.834;2023-05-10T04:15:20;12.60;99.90
57026;DHT22;43961;52.940;6.834;2023-05-10T04:17:46;12.60;99.90
57026;DHT22;43961;52.940;6.834;2023-05-10T04:20:12;12.60;99.90
57026;DHT22;43961;52.940;6.834;2023-05-10T04:22:38;12.60;99.90
57026;DHT22;43961;52.940;6.834;2023-05-10T04:25:04;12.60;99.90
57026;DHT22;43961;52.940;6.834;2023-05-10T04:27:30;12.60;99.90
57026;DHT22;43961;52.940;6.834;2023-05-10T04:29:56;12.50;99.90
57026;DHT22;43961;52.940;6.834;2023-05-10T04:32:22;12.50;99.90
57026;DHT22;43961;52.940;6.834;2023-05-10T04:34:48;12.50;99.90
57026;DHT22;43961;52.940;6.834;2023-05-10T04:37:14;12.50;99.90
57026;DHT22;43961;52.940;6.834;2023-05-10T04:39:40;12.50;99.90
57026;DHT22;43961;52.940;6.834;2023-05-10T04:42:05;12.40;99.90
57026;DHT22;43961;52.940;6.834;2023-05-10T04:44:32;12.50;99.90
57026;DHT22;43961;52.940;6.834;2023-05-10T04:46:58;12.50;99.90
57026;DHT22;43961;52.940;6.834;2023-05-10T04:49:24;12.50;99.90
57026;DHT22;43961;52.940;6.834;2023-05-10T04:51:50;12.50;99.90
57026;DHT22;43961;52.940;6.834;2023-05-10T04:54:15;12.50;99.90
57026;DHT22;43961;52.940;6.834;2023-05-10T04:56:41;12.50;99.90
57026;DHT22;43961;52.940;6.834;2023-05-10T04:59:06;12.40;99.90
57026;DHT22;43961;52.940;6.834;2023-05-10T05:01:32;12.50;99.90
57026;DHT22;43961;52.940;6.834;2023-05-10T05:03:58;12.50;99.90
57026;DHT22;43961;52.940;6.834;2023-05-10T05:06:24;12.50;99.90
57026;DHT22;43961;52.940;6.834;2023-05-10T05:08:51;12.50;99.90
57026;DHT22;43961;52.940;6.834;2023-05-10T05:11:19;12.50;99.90
57026;DHT22;43961;52.940;6.834;2023-05-10T05:13:46;12.50;99.90
57026;DHT22;43961;52.940;6.834;2023-05-10T05:16:15;12.50;99.90
57026;DHT22;43961;52.940;6.834;2023-05-10T05:18:41;12.50;99.90
57026;DHT22;43961;52.940;6.834;2023-05-10T05:21:19;12.50;99.90
57026;DHT22;43961;52.940;6.834;2023-05-10T05:23:45;12.50;99.90
57026;DHT22;43961;52.940;6.834;2023-05-10T05:26:11;12.50;99.90
57026;DHT22;43961;52.940;6.834;2023-05-10T05:28:37;12.50;99.90
57026;DHT22;43961;52.940;6.834;2023-05-10T05:31:09;12.60;99.90
57026;DHT22;43961;52.940;6.834;2023-05-10T05:33:34;12.60;99.90
57026;DHT22;43961;52.940;6.834;2023-05-10T05:36:01;12.60;99.90
57026;DHT22;43961;52.940;6.834;2023-05-10T05:38:27;12.60;99.90
57026;DHT22;43961;52.940;6.834;2023-05-10T05:40:53;12.60;99.90
57026;DHT22;43961;52.940;6.834;2023-05-10T05:43:18;12.60;99.90
57026;DHT22;43961;52.940;6.834;2023-05-10T05:45:44;12.60;99.90
57026;DHT22;43961;52.940;6.834;2023-05-10T05:48:10;12.60;99.90
57026;DHT22;43961;52.940;6.834;2023-05-10T05:50:36;12.60;99.90
57026;DHT22;43961;52.940;6.834;2023-05-10T05:53:01;12.60;99.90
57026;DHT22;43961;52.940;6.834;2023-05-10T05:55:27;12.60;99.90
57026;DHT22;43961;52.940;6.834;2023-05-10T05:57:53;12.70;99.90
57026;DHT22;43961;52.940;6.834;2023-05-10T06:00:19;12.60;99.90
57026;DHT22;43961;52.940;6.834;2023-05-10T06:02:45;12.60;99.90
57026;DHT22;43961;52.940;6.834;2023-05-10T06:05:10;12.60;99.90
57026;DHT22;43961;52.940;6.834;2023-05-10T06:07:36;12.60;99.90
57026;DHT22;43961;52.940;6.834;2023-05-10T06:10:02;12.60;99.90
57026;DHT22;43961;52.940;6.834;2023-05-10T06:12:28;12.60;99.90
57026;DHT22;43961;52.940;6.834;2023-05-10T06:14:54;12.60;99.90
57026;DHT22;43961;52.940;6.834;2023-05-10T06:17:19;12.60;99.90
57026;DHT22;43961;52.940;6.834;2023-05-10T06:19:45;12.60;99.90
57026;DHT22;43961;52.940;6.834;2023-05-10T06:22:10;12.50;99.90
57026;DHT22;43961;52.940;6.834;2023-05-10T06:24:36;12.60;99.90
57026;DHT22;43961;52.940;6.834;2023-05-10T06:27:01;12.60;99.90
57026;DHT22;43961;52.940;6.834;2023-05-10T06:29:27;12.60;99.90
57026;DHT22;43961;52.940;6.834;2023-05-10T06:31:53;12.60;99.90
57026;DHT22;43961;52.940;6.834;2023-05-10T06:34:19;12.60;99.90
57026;DHT22;43961;52.940;6.834;2023-05-10T06:36:45;12.60;99.90
57026;DHT22;43961;52.940;6.834;2023-05-10T06:39:11;12.60;99.90
57026;DHT22;43961;52.940;6.834;2023-05-10T06:41:37;12.60;99.90
57026;DHT22;43961;52.940;6.834;2023-05-10T06:44:03;12.70;99.90
57026;DHT22;43961;52.940;6.834;2023-05-10T06:46:29;12.60;99.90
57026;DHT22;43961;52.940;6.834;2023-05-10T06:48:54;12.60;99.90
57026;DHT22;43961;52.940;6.834;2023-05-10T06:51:21;12.70;99.90
57026;DHT22;43961;52.940;6.834;2023-05-10T06:53:47;12.70;99.90
57026;DHT22;43961;52.940;6.834;2023-05-10T06:56:13;12.70;99.90
57026;DHT22;43961;52.940;6.834;2023-05-10T06:58:38;12.70;99.90
57026;DHT22;43961;52.940;6.834;2023-05-10T07:01:05;12.70;99.90
57026;DHT22;43961;52.940;6.834;2023-05-10T07:03:31;12.70;99.90
57026;DHT22;43961;52.940;6.834;2023-05-10T07:06:01;12.70;99.90
57026;DHT22;43961;52.940;6.834;2023-05-10T07:08:29;12.80;99.90
57026;DHT22;43961;52.940;6.834;2023-05-10T07:11:02;12.80;99.90
57026;DHT22;43961;52.940;6.834;2023-05-10T07:13:33;12.80;99.90
57026;DHT22;43961;52.940;6.834;2023-05-10T07:16:00;12.90;99.90
57026;DHT22;43961;52.940;6.834;2023-05-10T07:18:26;12.90;99.90
57026;DHT22;43961;52.940;6.834;2023-05-10T07:20:52;13.00;99.90
57026;DHT22;43961;52.940;6.834;2023-05-10T07:23:18;13.00;99.90
57026;DHT22;43961;52.940;6.834;2023-05-10T07:25:48;13.10;99.90
57026;DHT22;43961;52.940;6.834;2023-05-10T07:28:15;13.10;99.90
57026;DHT22;43961;52.940;6.834;2023-05-10T07:30:41;13.20;99.90
57026;DHT22;43961;52.940;6.834;2023-05-10T07:33:07;13.20;99.90
57026;DHT22;43961;52.940;6.834;2023-05-10T07:35:34;13.30;99.90
57026;DHT22;43961;52.940;6.834;2023-05-10T07:38:00;13.30;99.90
57026;DHT22;43961;52.940;6.834;2023-05-10T07:40:25;13.40;99.90
57026;DHT22;43961;52.940;6.834;2023-05-10T07:42:51;13.40;99.90
57026;DHT22;43961;52.940;6.834;2023-05-10T07:45:17;13.40;99.90
57026;DHT22;43961;52.940;6.834;2023-05-10T07:47:43;13.40;99.90
57026;DHT22;43961;52.940;6.834;2023-05-10T07:50:09;13.50;99.90
57026;DHT22;43961;52.940;6.834;2023-05-10T07:52:34;13.50;99.90
57026;DHT22;43961;52.940;6.834;2023-05-10T07:55:00;13.60;99.90
57026;DHT22;43961;52.940;6.834;2023-05-10T07:57:26;13.50;99.90
57026;DHT22;43961;52.940;6.834;2023-05-10T07:59:52;13.50;99.90
57026;DHT22;43961;52.940;6.834;2023-05-10T08:02:18;13.60;99.90
57026;DHT22;43961;52.940;6.834;2023-05-10T08:04:44;13.70;99.90
57026;DHT22;43961;52.940;6.834;2023-05-10T08:07:10;13.70;99.90
57026;DHT22;43961;52.940;6.834;2023-05-10T08:09:36;13.60;99.90
57026;DHT22;43961;52.940;6.834;2023-05-10T08:12:02;13.70;99.90
57026;DHT22;43961;52.940;6.834;2023-05-10T08:14:29;13.60;99.90
57026;DHT22;43961;52.940;6.834;2023-05-10T08:16:55;13.70;99.90
57026;DHT22;43961;52.940;6.834;2023-05-10T08:19:21;13.70;99.90
57026;DHT22;43961;52.940;6.834;2023-05-10T08:21:48;13.60;99.90
57026;DHT22;43961;52.940;6.834;2023-05-10T08:24:13;13.70;99.90
57026;DHT22;43961;52.940;6.834;2023-05-10T08:26:39;13.70;99.90
57026;DHT22;43961;52.940;6.834;2023-05-10T08:29:05;13.70;99.90
57026;DHT22;43961;52.940;6.834;2023-05-10T08:31:31;13.70;99.90
57026;DHT22;43961;52.940;6.834;2023-05-10T08:33:57;13.70;99.90
57026;DHT22;43961;52.940;6.834;2023-05-10T08:36:24;13.70;99.90
57026;DHT22;43961;52.940;6.834;2023-05-10T08:38:53;13.80;99.90
57026;DHT22;43961;52.940;6.834;2023-05-10T08:41:23;13.80;99.90
57026;DHT22;43961;52.940;6.834;2023-05-10T08:43:54;13.80;99.90
57026;DHT22;43961;52.940;6.834;2023-05-10T08:46:23;13.80;99.90
57026;DHT22;43961;52.940;6.834;2023-05-10T08:48:49;13.80;99.90
57026;DHT22;43961;52.940;6.834;2023-05-10T08:51:22;13.80;99.90
57026;DHT22;43961;52.940;6.834;2023-05-10T08:53:50;13.80;99.90
57026;DHT22;43961;52.940;6.834;2023-05-10T08:56:16;13.80;99.90
57026;DHT22;43961;52.940;6.834;2023-05-10T08:58:44;13.80;99.90
57026;DHT22;43961;52.940;6.834;2023-05-10T09:01:12;13.80;99.90
57026;DHT22;43961;52.940;6.834;2023-05-10T09:03:38;13.70;99.90
57026;DHT22;43961;52.940;6.834;2023-05-10T09:06:04;13.70;99.90
57026;DHT22;43961;52.940;6.834;2023-05-10T09:08:30;13.70;99.90
57026;DHT22;43961;52.940;6.834;2023-05-10T09:10:57;13.60;99.90
57026;DHT22;43961;52.940;6.834;2023-05-10T09:13:23;13.60;99.90
57026;DHT22;43961;52.940;6.834;2023-05-10T09:15:50;13.60;99.90
57026;DHT22;43961;52.940;6.834;2023-05-10T09:18:16;13.60;99.90
57026;DHT22;43961;52.940;6.834;2023-05-10T09:20:42;13.60;99.90
57026;DHT22;43961;52.940;6.834;2023-05-10T09:23:08;13.60;99.90
57026;DHT22;43961;52.940;6.834;2023-05-10T09:25:34;13.60;99.90
57026;DHT22;43961;52.940;6.834;2023-05-10T09:28:00;13.60;99.90
57026;DHT22;43961;52.940;6.834;2023-05-10T09:30:28;13.60;99.90
57026;DHT22;43961;52.940;6.834;2023-05-10T09:32:55;13.50;99.90
57026;DHT22;43961;52.940;6.834;2023-05-10T09:35:22;13.60;99.90
57026;DHT22;43961;52.940;6.834;2023-05-10T09:37:51;13.60;99.90
57026;DHT22;43961;52.940;6.834;2023-05-10T09:40:19;13.70;99.90
57026;DHT22;43961;52.940;6.834;2023-05-10T09:42:56;13.80;99.90
57026;DHT22;43961;52.940;6.834;2023-05-10T09:45:24;13.90;99.90
57026;DHT22;43961;52.940;6.834;2023-05-10T09:47:53;14.10;99.90
57026;DHT22;43961;52.940;6.834;2023-05-10T09:50:20;14.20;99.90
57026;DHT22;43961;52.940;6.834;2023-05-10T09:52:55;14.40;99.90
57026;DHT22;43961;52.940;6.834;2023-05-10T09:55:24;14.40;99.90
57026;DHT22;43961;52.940;6.834;2023-05-10T09:57:59;14.50;99.90
57026;DHT22;43961;52.940;6.834;2023-05-10T10:00:26;14.60;99.90
57026;DHT22;43961;52.940;6.834;2023-05-10T10:02:57;14.50;99.90
57026;DHT22;43961;52.940;6.834;2023-05-10T10:05:33;14.50;99.90
57026;DHT22;43961;52.940;6.834;2023-05-10T10:08:00;14.50;99.90
57026;DHT22;43961;52.940;6.834;2023-05-10T10:10:26;14.50;99.90
57026;DHT22;43961;52.940;6.834;2023-05-10T10:12:53;14.50;99.90
57026;DHT22;43961;52.940;6.834;2023-05-10T10:15:20;14.50;99.90
57026;DHT22;43961;52.940;6.834;2023-05-10T10:17:46;14.50;99.90
57026;DHT22;43961;52.940;6.834;2023-05-10T10:20:14;14.50;99.90
57026;DHT22;43961;52.940;6.834;2023-05-10T10:22:40;14.50;99.90
57026;DHT22;43961;52.940;6.834;2023-05-10T10:25:06;14.60;99.90
57026;DHT22;43961;52.940;6.834;2023-05-10T10:30:43;14.70;99.90
57026;DHT22;43961;52.940;6.834;2023-05-10T10:36:01;14.90;99.90
57026;DHT22;43961;52.940;6.834;2023-05-10T10:41:39;15.20;99.90
57026;DHT22;43961;52.940;6.834;2023-05-10T10:52:25;15.70;99.90
57026;DHT22;43961;52.940;6.834;2023-05-10T10:55:10;15.60;99.90
57026;DHT22;43961;52.940;6.834;2023-05-10T10:57:51;15.60;99.90
57026;DHT22;43961;52.940;6.834;2023-05-10T11:02:44;15.60;99.90
57026;DHT22;43961;52.940;6.834;2023-05-10T11:07:57;15.60;99.90
57026;DHT22;43961;52.940;6.834;2023-05-10T11:10:24;15.60;99.90
57026;DHT22;43961;52.940;6.834;2023-05-10T11:13:02;15.60;99.90
57026;DHT22;43961;52.940;6.834;2023-05-10T11:15:39;15.60;99.90
57026;DHT22;43961;52.940;6.834;2023-05-10T11:18:18;15.70;99.90
57026;DHT22;43961;52.940;6.834;2023-05-10T11:20:45;15.70;99.90
57026;DHT22;43961;52.940;6.834;2023-05-10T11:23:15;15.80;99.90
57026;DHT22;43961;52.940;6.834;2023-05-10T11:25:43;15.90;99.90
57026;DHT22;43961;52.940;6.834;2023-05-10T11:28:10;15.90;99.90
57026;DHT22;43961;52.940;6.834;2023-05-10T11:30:37;16.00;99.90
57026;DHT22;43961;52.940;6.834;2023-05-10T11:33:03;16.10;99.90
57026;DHT22;43961;52.940;6.834;2023-05-10T11:35:29;16.10;99.90
57026;DHT22;43961;52.940;6.834;2023-05-10T11:37:54;16.10;99.90
57026;DHT22;43961;52.940;6.834;2023-05-10T11:40:23;16.20;99.90
57026;DHT22;43961;52.940;6.834;2023-05-10T11:42:50;16.20;99.90
57026;DHT22;43961;52.940;6.834;2023-05-10T11:45:16;16.20;99.90
57026;DHT22;43961;52.940;6.834;2023-05-10T11:47:42;16.20;99.90
57026;DHT22;43961;52.940;6.834;2023-05-10T11:50:11;16.10;99.90
57026;DHT22;43961;52.940;6.834;2023-05-10T11:52:37;16.10;99.90
57026;DHT22;43961;52.940;6.834;2023-05-10T11:55:03;16.10;99.90
57026;DHT22;43961;52.940;6.834;2023-05-10T11:57:29;16.00;99.90
57026;DHT22;43961;52.940;6.834;2023-05-10T11:59:58;16.10;99.90
57026;DHT22;43961;52.940;6.834;2023-05-10T12:02:24;16.00;99.90
57026;DHT22;43961;52.940;6.834;2023-05-10T12:04:50;15.90;99.90
57026;DHT22;43961;52.940;6.834;2023-05-10T12:07:16;15.90;99.90
57026;DHT22;43961;52.940;6.834;2023-05-10T12:10:09;15.90;99.90
57026;DHT22;43961;52.940;6.834;2023-05-10T12:12:42;15.90;99.90
57026;DHT22;43961;52.940;6.834;2023-05-10T12:15:11;15.90;99.90
57026;DHT22;43961;52.940;6.834;2023-05-10T12:17:38;15.90;99.90
57026;DHT22;43961;52.940;6.834;2023-05-10T12:22:43;16.00;99.90
57026;DHT22;43961;52.940;6.834;2023-05-10T12:25:09;16.00;99.90
57026;DHT22;43961;52.940;6.834;2023-05-10T12:27:35;16.00;99.90
57026;DHT22;43961;52.940;6.834;2023-05-10T12:30:01;16.00;99.90
57026;DHT22;43961;52.940;6.834;2023-05-10T12:32:43;16.10;99.90
57026;DHT22;43961;52.940;6.834;2023-05-10T12:35:09;16.10;99.90
57026;DHT22;43961;52.940;6.834;2023-05-10T12:37:35;16.10;99.90
57026;DHT22;43961;52.940;6.834;2023-05-10T12:40:06;16.10;99.90
57026;DHT22;43961;52.940;6.834;2023-05-10T12:42:32;16.00;99.90
57026;DHT22;43961;52.940;6.834;2023-05-10T12:44:57;16.00;99.90
57026;DHT22;43961;52.940;6.834;2023-05-10T12:47:23;15.90;99.90
57026;DHT22;43961;52.940;6.834;2023-05-10T12:49:49;15.90;99.90
57026;DHT22;43961;52.940;6.834;2023-05-10T12:52:14;15.80;99.90
57026;DHT22;43961;52.940;6.834;2023-05-10T12:54:40;15.90;99.90
57026;DHT22;43961;52.940;6.834;2023-05-10T12:57:05;15.90;99.90
57026;DHT22;43961;52.940;6.834;2023-05-10T12:59:31;15.90;99.90
57026;DHT22;43961;52.940;6.834;2023-05-10T13:01:57;16.00;99.90
57026;DHT22;43961;52.940;6.834;2023-05-10T13:04:23;16.00;99.90
57026;DHT22;43961;52.940;6.834;2023-05-10T13:06:49;16.10;99.90
57026;DHT22;43961;52.940;6.834;2023-05-10T13:09:14;16.10;99.90
57026;DHT22;43961;52.940;6.834;2023-05-10T13:11:40;16.00;99.90
57026;DHT22;43961;52.940;6.834;2023-05-10T13:14:06;16.10;99.90
57026;DHT22;43961;52.940;6.834;2023-05-10T13:16:32;16.10;99.90
57026;DHT22;43961;52.940;6.834;2023-05-10T13:18:58;16.10;99.90
57026;DHT22;43961;52.940;6.834;2023-05-10T13:21:24;16.10;99.90
57026;DHT22;43961;52.940;6.834;2023-05-10T13:23:50;16.10;99.90
57026;DHT22;43961;52.940;6.834;2023-05-10T13:26:16;16.20;99.90
57026;DHT22;43961;52.940;6.834;2023-05-10T13:28:43;16.20;99.90
57026;DHT22;43961;52.940;6.834;2023-05-10T13:31:08;16.20;99.90
57026;DHT22;43961;52.940;6.834;2023-05-10T13:33:34;16.20;99.90
57026;DHT22;43961;52.940;6.834;2023-05-10T13:36:00;16.20;99.90
57026;DHT22;43961;52.940;6.834;2023-05-10T13:38:25;16.10;99.90
57026;DHT22;43961;52.940;6.834;2023-05-10T13:40:51;16.00;99.90
57026;DHT22;43961;52.940;6.834;2023-05-10T13:43:18;16.00;99.90
57026;DHT22;43961;52.940;6.834;2023-05-10T13:45:44;15.90;99.90
57026;DHT22;43961;52.940;6.834;2023-05-10T13:48:10;15.90;99.90
57026;DHT22;43961;52.940;6.834;2023-05-10T13:50:35;15.80;99.90
57026;DHT22;43961;52.940;6.834;2023-05-10T13:53:01;15.80;99.90
57026;DHT22;43961;52.940;6.834;2023-05-10T13:55:26;15.80;99.90
57026;DHT22;43961;52.940;6.834;2023-05-10T13:57:52;15.70;99.90
57026;DHT22;43961;52.940;6.834;2023-05-10T14:00:18;15.70;99.90
57026;DHT22;43961;52.940;6.834;2023-05-10T14:02:43;15.80;99.90
57026;DHT22;43961;52.940;6.834;2023-05-10T14:05:09;15.80;99.90
57026;DHT22;43961;52.940;6.834;2023-05-10T14:07:35;15.70;99.90
57026;DHT22;43961;52.940;6.834;2023-05-10T14:10:01;15.80;99.90
57026;DHT22;43961;52.940;6.834;2023-05-10T14:12:27;15.80;99.90
57026;DHT22;43961;52.940;6.834;2023-05-10T14:14:52;15.70;99.90
57026;DHT22;43961;52.940;6.834;2023-05-10T14:17:18;15.70;99.90
57026;DHT22;43961;52.940;6.834;2023-05-10T14:19:44;15.80;99.90
57026;DHT22;43961;52.940;6.834;2023-05-10T14:22:10;15.70;99.90
57026;DHT22;43961;52.940;6.834;2023-05-10T14:24:35;15.80;99.90
57026;DHT22;43961;52.940;6.834;2023-05-10T14:27:01;15.80;99.90
57026;DHT22;43961;52.940;6.834;2023-05-10T14:29:27;15.80;99.90
57026;DHT22;43961;52.940;6.834;2023-05-10T14:31:52;15.70;99.90
57026;DHT22;43961;52.940;6.834;2023-05-10T14:34:18;15.70;99.90
57026;DHT22;43961;52.940;6.834;2023-05-10T14:36:44;15.80;99.90
57026;DHT22;43961;52.940;6.834;2023-05-10T14:39:09;15.80;99.90
57026;DHT22;43961;52.940;6.834;2023-05-10T14:41:38;15.80;99.90
57026;DHT22;43961;52.940;6.834;2023-05-10T14:44:04;15.80;99.90
57026;DHT22;43961;52.940;6.834;2023-05-10T14:46:30;15.80;99.90
57026;DHT22;43961;52.940;6.834;2023-05-10T14:48:56;15.90;99.90
57026;DHT22;43961;52.940;6.834;2023-05-10T14:51:21;15.90;99.90
57026;DHT22;43961;52.940;6.834;2023-05-10T14:53:48;15.90;99.90
57026;DHT22;43961;52.940;6.834;2023-05-10T14:56:15;16.00;99.90
57026;DHT22;43961;52.940;6.834;2023-05-10T14:58:40;16.00;99.90
57026;DHT22;43961;52.940;6.834;2023-05-10T15:01:06;16.10;99.90
57026;DHT22;43961;52.940;6.834;2023-05-10T15:03:31;16.10;99.90
57026;DHT22;43961;52.940;6.834;2023-05-10T15:05:57;16.20;99.90
57026;DHT22;43961;52.940;6.834;2023-05-10T15:08:23;16.20;99.90
57026;DHT22;43961;52.940;6.834;2023-05-10T15:10:50;16.20;99.90
57026;DHT22;43961;52.940;6.834;2023-05-10T15:13:16;16.30;99.90
57026;DHT22;43961;52.940;6.834;2023-05-10T15:15:42;16.30;99.90
57026;DHT22;43961;52.940;6.834;2023-05-10T15:18:09;16.30;99.90
57026;DHT22;43961;52.940;6.834;2023-05-10T15:20:34;16.30;99.90
57026;DHT22;43961;52.940;6.834;2023-05-10T15:23:00;16.20;99.90
57026;DHT22;43961;52.940;6.834;2023-05-10T15:25:26;16.30;99.90
57026;DHT22;43961;52.940;6.834;2023-05-10T15:27:53;16.20;99.90
57026;DHT22;43961;52.940;6.834;2023-05-10T15:30:18;16.20;99.90
57026;DHT22;43961;52.940;6.834;2023-05-10T15:32:44;16.10;99.90
57026;DHT22;43961;52.940;6.834;2023-05-10T15:35:10;16.20;99.90
57026;DHT22;43961;52.940;6.834;2023-05-10T15:37:36;16.10;99.90
57026;DHT22;43961;52.940;6.834;2023-05-10T15:40:02;16.10;99.90
57026;DHT22;43961;52.940;6.834;2023-05-10T15:42:29;16.10;99.90
57026;DHT22;43961;52.940;6.834;2023-05-10T15:44:56;16.10;99.90
57026;DHT22;43961;52.940;6.834;2023-05-10T15:47:21;16.10;99.90
57026;DHT22;43961;52.940;6.834;2023-05-10T15:49:47;16.10;99.90
57026;DHT22;43961;52.940;6.834;2023-05-10T15:52:13;16.10;99.90
57026;DHT22;43961;52.940;6.834;2023-05-10T15:54:38;16.00;99.90
57026;DHT22;43961;52.940;6.834;2023-05-10T15:57:04;16.00;99.90
57026;DHT22;43961;52.940;6.834;2023-05-10T15:59:30;16.00;99.90
57026;DHT22;43961;52.940;6.834;2023-05-10T16:01:56;15.90;99.90
57026;DHT22;43961;52.940;6.834;2023-05-10T16:04:22;15.90;99.90
57026;DHT22;43961;52.940;6.834;2023-05-10T16:06:47;15.90;99.90
57026;DHT22;43961;52.940;6.834;2023-05-10T16:09:13;15.90;99.90